createdAt,value
2018-04-10T00:00:13.496Z,21.67
2018-04-10T00:00:45.106Z,21.67
2018-04-10T00:01:16.725Z,21.65
2018-04-10T00:01:48.319Z,21.64
2018-04-10T00:02:19.903Z,21.65
2018-04-10T00:02:51.514Z,21.66
2018-04-10T00:03:23.102Z,21.67
2018-04-10T00:03:54.710Z,21.67
2018-04-10T00:04:26.303Z,21.67
2018-04-10T00:04:57.904Z,21.67
2018-04-10T00:05:29.503Z,21.67
2018-04-10T00:06:01.082Z,21.67
2018-04-10T00:06:32.656Z,21.66
2018-04-10T00:07:04.302Z,21.66
2018-04-10T00:07:35.879Z,21.67
2018-04-10T00:08:07.452Z,21.67
2018-04-10T00:08:39.110Z,21.67
2018-04-10T00:09:10.726Z,21.66
2018-04-10T00:09:42.324Z,21.64
2018-04-10T00:10:13.924Z,21.65
2018-04-10T00:10:45.510Z,21.66
2018-04-10T00:11:17.124Z,21.64
2018-04-10T00:11:48.713Z,21.65
2018-04-10T00:12:20.319Z,21.65
2018-04-10T00:12:51.933Z,21.64
2018-04-10T00:13:23.542Z,21.66
2018-04-10T00:13:55.177Z,21.66
2018-04-10T00:14:26.762Z,21.67
2018-04-10T00:14:58.426Z,21.67
2018-04-10T00:15:30.018Z,21.66
2018-04-10T00:16:01.606Z,21.64
2018-04-10T00:16:33.214Z,21.64
2018-04-10T00:17:04.828Z,21.63
2018-04-10T00:17:36.418Z,21.63
2018-04-10T00:18:08.026Z,21.63
2018-04-10T00:18:39.625Z,21.62
2018-04-10T00:19:11.205Z,21.61
2018-04-10T00:19:42.791Z,21.57
2018-04-10T00:20:14.450Z,21.58
2018-04-10T00:20:46.039Z,21.55
2018-04-10T00:21:17.646Z,21.57
2018-04-10T00:21:49.250Z,21.59
2018-04-10T00:22:20.866Z,21.59
2018-04-10T00:22:52.444Z,21.60
2018-04-10T00:23:24.044Z,21.58
2018-04-10T00:23:55.632Z,21.59
2018-04-10T00:24:27.204Z,21.59
2018-04-10T00:24:58.777Z,21.59
2018-04-10T00:25:30.422Z,21.59
2018-04-10T00:26:02.029Z,21.59
2018-04-10T00:26:33.637Z,21.58
2018-04-10T00:27:05.213Z,21.60
2018-04-10T00:27:36.846Z,21.58
2018-04-10T00:28:08.471Z,21.59
2018-04-10T00:28:40.057Z,21.60
2018-04-10T00:29:11.642Z,21.60
2018-04-10T00:29:43.224Z,21.58
2018-04-10T00:30:14.818Z,21.58
2018-04-10T00:30:46.436Z,21.57
2018-04-10T00:31:18.022Z,21.57
2018-04-10T00:31:49.624Z,21.56
2018-04-10T00:32:21.222Z,21.56
2018-04-10T00:32:52.885Z,21.56
2018-04-10T00:33:24.493Z,21.56
2018-04-10T00:33:56.083Z,21.56
2018-04-10T00:34:27.689Z,21.54
2018-04-10T00:34:59.305Z,21.57
2018-04-10T00:35:30.912Z,21.58
2018-04-10T00:36:02.557Z,21.59
2018-04-10T00:36:34.186Z,21.58
2018-04-10T00:37:05.780Z,21.64
2018-04-10T00:37:37.437Z,21.65
2018-04-10T00:38:09.008Z,21.67
2018-04-10T00:38:40.594Z,21.67
2018-04-10T00:39:12.178Z,21.66
2018-04-10T00:39:43.839Z,21.68
2018-04-10T00:40:15.449Z,21.70
2018-04-10T00:40:47.025Z,21.71
2018-04-10T00:41:18.610Z,21.70
2018-04-10T00:41:50.218Z,21.72
2018-04-10T00:42:21.830Z,21.71
2018-04-10T00:42:53.418Z,21.71
2018-04-10T00:43:25.008Z,21.70
2018-04-10T00:43:56.584Z,21.69
2018-04-10T00:44:28.202Z,21.68
2018-04-10T00:44:59.809Z,21.65
2018-04-10T00:45:31.417Z,21.64
2018-04-10T00:46:03.010Z,21.64
2018-04-10T00:46:34.618Z,21.62
2018-04-10T00:47:06.251Z,21.61
2018-04-10T00:47:37.837Z,21.59
2018-04-10T00:48:09.418Z,21.56
2018-04-10T00:48:41.002Z,21.54
2018-04-10T00:49:12.613Z,21.55
2018-04-10T00:49:44.227Z,21.54
2018-04-10T00:50:15.850Z,21.55
2018-04-10T00:50:47.459Z,21.55
2018-04-10T00:51:19.046Z,21.54
2018-04-10T00:51:50.701Z,21.51
2018-04-10T00:52:23.299Z,21.52
2018-04-10T00:52:54.890Z,21.52
2018-04-10T00:53:26.498Z,21.52
2018-04-10T00:53:58.154Z,21.52
2018-04-10T00:54:29.746Z,21.50
2018-04-10T00:55:02.369Z,21.51
2018-04-10T00:55:33.961Z,21.52
2018-04-10T00:56:05.610Z,21.50
2018-04-10T00:56:37.222Z,21.49
2018-04-10T00:57:08.803Z,21.49
2018-04-10T00:57:40.414Z,21.50
2018-04-10T00:58:11.992Z,21.47
2018-04-10T00:58:43.597Z,21.46
2018-04-10T00:59:15.189Z,21.47
2018-04-10T00:59:46.799Z,21.46
2018-04-10T01:00:18.466Z,21.46
2018-04-10T01:00:50.054Z,21.47
2018-04-10T01:01:21.653Z,21.49
2018-04-10T01:01:53.248Z,21.49
2018-04-10T01:02:24.829Z,21.50
2018-04-10T01:02:56.436Z,21.48
2018-04-10T01:03:28.050Z,21.49
2018-04-10T01:03:59.658Z,21.49
2018-04-10T01:04:31.269Z,21.50
2018-04-10T01:05:02.852Z,21.49
2018-04-10T01:05:34.506Z,21.48
2018-04-10T01:06:06.090Z,21.49
2018-04-10T01:06:37.700Z,21.50
2018-04-10T01:07:09.286Z,21.50
2018-04-10T01:07:40.884Z,21.52
2018-04-10T01:08:12.494Z,21.51
2018-04-10T01:08:44.092Z,21.52
2018-04-10T01:09:15.682Z,21.51
2018-04-10T01:09:47.283Z,21.51
2018-04-10T01:10:18.878Z,21.52
2018-04-10T01:10:50.506Z,21.52
2018-04-10T01:11:22.080Z,21.52
2018-04-10T01:11:53.685Z,21.51
2018-04-10T01:12:25.288Z,21.49
2018-04-10T01:12:56.903Z,21.50
2018-04-10T01:13:28.554Z,21.49
2018-04-10T01:14:00.209Z,21.48
2018-04-10T01:14:31.798Z,21.48
2018-04-10T01:15:03.400Z,21.48
2018-04-10T01:15:34.990Z,21.47
2018-04-10T01:16:06.593Z,21.46
2018-04-10T01:16:38.186Z,21.46
2018-04-10T01:17:09.795Z,21.47
2018-04-10T01:17:41.424Z,21.46
2018-04-10T01:18:13.006Z,21.43
2018-04-10T01:18:44.605Z,21.43
2018-04-10T01:19:16.193Z,21.43
2018-04-10T01:19:47.801Z,21.42
2018-04-10T01:20:19.392Z,21.42
2018-04-10T01:20:50.982Z,21.42
2018-04-10T01:21:22.557Z,21.42
2018-04-10T01:21:54.167Z,21.43
2018-04-10T01:22:25.754Z,21.42
2018-04-10T01:22:57.407Z,21.41
2018-04-10T01:23:28.994Z,21.42
2018-04-10T01:24:00.584Z,21.45
2018-04-10T01:24:32.170Z,21.46
2018-04-10T01:25:03.749Z,21.47
2018-04-10T01:25:35.349Z,21.45
2018-04-10T01:26:06.962Z,21.47
2018-04-10T01:26:38.550Z,21.50
2018-04-10T01:27:10.153Z,21.49
2018-04-10T01:27:41.748Z,21.48
2018-04-10T01:28:13.386Z,21.47
2018-04-10T01:28:44.974Z,21.47
2018-04-10T01:29:16.564Z,21.45
2018-04-10T01:29:48.157Z,21.44
2018-04-10T01:30:19.742Z,21.46
2018-04-10T01:30:51.325Z,21.44
2018-04-10T01:31:22.925Z,21.45
2018-04-10T01:31:54.537Z,21.44
2018-04-10T01:32:26.108Z,21.45
2018-04-10T01:32:57.714Z,21.45
2018-04-10T01:33:29.345Z,21.45
2018-04-10T01:34:00.930Z,21.44
2018-04-10T01:34:32.542Z,21.46
2018-04-10T01:35:04.144Z,21.45
2018-04-10T01:35:35.720Z,21.48
2018-04-10T01:36:07.306Z,21.49
2018-04-10T01:36:38.884Z,21.49
2018-04-10T01:37:10.460Z,21.49
2018-04-10T01:37:42.046Z,21.48
2018-04-10T01:38:13.660Z,21.46
2018-04-10T01:38:45.298Z,21.45
2018-04-10T01:39:16.896Z,21.45
2018-04-10T01:39:48.476Z,21.45
2018-04-10T01:40:20.066Z,21.44
2018-04-10T01:40:51.665Z,21.45
2018-04-10T01:41:23.240Z,21.44
2018-04-10T01:41:54.846Z,21.44
2018-04-10T01:42:26.440Z,21.44
2018-04-10T01:42:58.027Z,21.44
2018-04-10T01:43:29.638Z,21.44
2018-04-10T01:44:01.286Z,21.43
2018-04-10T01:44:32.880Z,21.42
2018-04-10T01:45:04.494Z,21.43
2018-04-10T01:45:36.087Z,21.44
2018-04-10T01:46:07.694Z,21.43
2018-04-10T01:46:39.296Z,21.43
2018-04-10T01:47:10.888Z,21.42
2018-04-10T01:47:42.479Z,21.41
2018-04-10T01:48:14.093Z,21.39
2018-04-10T01:48:45.676Z,21.42
2018-04-10T01:49:17.328Z,21.44
2018-04-10T01:49:48.918Z,21.46
2018-04-10T01:50:20.493Z,21.46
2018-04-10T01:50:52.089Z,21.46
2018-04-10T01:51:23.688Z,21.46
2018-04-10T01:51:55.284Z,21.45
2018-04-10T01:52:26.905Z,21.44
2018-04-10T01:52:58.489Z,21.42
2018-04-10T01:53:30.097Z,21.43
2018-04-10T01:54:01.701Z,21.45
2018-04-10T01:54:33.366Z,21.45
2018-04-10T01:55:04.944Z,21.44
2018-04-10T01:55:36.545Z,21.45
2018-04-10T01:56:08.138Z,21.46
2018-04-10T01:56:39.722Z,21.45
2018-04-10T01:57:11.331Z,21.46
2018-04-10T01:57:42.936Z,21.46
2018-04-10T01:58:14.526Z,21.47
2018-04-10T01:58:46.104Z,21.46
2018-04-10T01:59:17.700Z,21.46
2018-04-10T01:59:49.366Z,21.45
2018-04-10T02:00:20.936Z,21.44
2018-04-10T02:00:52.509Z,21.45
2018-04-10T02:01:24.094Z,21.45
2018-04-10T02:01:55.686Z,21.46
2018-04-10T02:02:27.270Z,21.46
2018-04-10T02:02:58.854Z,21.45
2018-04-10T02:03:30.446Z,21.42
2018-04-10T02:04:02.055Z,21.46
2018-04-10T02:04:33.648Z,21.45
2018-04-10T02:05:05.300Z,21.46
2018-04-10T02:05:36.917Z,21.42
2018-04-10T02:06:08.529Z,21.43
2018-04-10T02:06:40.124Z,21.44
2018-04-10T02:07:11.704Z,21.44
2018-04-10T02:07:43.314Z,21.42
2018-04-10T02:08:14.967Z,21.40
2018-04-10T02:08:46.519Z,21.37
2018-04-10T02:09:18.122Z,21.38
2018-04-10T02:09:55.414Z,21.39
2018-04-10T02:10:35.402Z,21.40
2018-04-10T02:11:12.710Z,21.40
2018-04-10T02:11:49.940Z,21.38
2018-04-10T02:12:27.282Z,21.40
2018-04-10T02:13:04.682Z,21.38
2018-04-10T02:13:42.120Z,21.38
2018-04-10T02:14:19.568Z,21.36
2018-04-10T02:14:56.926Z,21.37
2018-04-10T02:15:34.302Z,21.38
2018-04-10T02:16:11.620Z,21.39
2018-04-10T02:16:49.057Z,21.37
2018-04-10T02:17:26.394Z,21.39
2018-04-10T02:18:03.700Z,21.38
2018-04-10T02:18:40.934Z,21.39
2018-04-10T02:19:12.517Z,21.40
2018-04-10T02:19:44.113Z,21.41
2018-04-10T02:20:15.727Z,21.43
2018-04-10T02:20:47.377Z,21.44
2018-04-10T02:21:19.066Z,21.45
2018-04-10T02:21:50.722Z,21.41
2018-04-10T02:22:22.328Z,21.43
2018-04-10T02:22:53.934Z,21.44
2018-04-10T02:23:25.586Z,21.45
2018-04-10T02:23:57.174Z,21.46
2018-04-10T02:24:28.816Z,21.44
2018-04-10T02:25:00.424Z,21.46
2018-04-10T02:25:32.060Z,21.43
2018-04-10T02:26:03.666Z,21.44
2018-04-10T02:26:35.296Z,21.46
2018-04-10T02:27:06.910Z,21.47
2018-04-10T02:27:38.540Z,21.49
2018-04-10T02:28:10.174Z,21.51
2018-04-10T02:28:41.776Z,21.51
2018-04-10T02:29:13.421Z,21.51
2018-04-10T02:29:45.001Z,21.51
2018-04-10T02:30:16.665Z,21.53
2018-04-10T02:30:48.248Z,21.51
2018-04-10T02:31:20.014Z,21.50
2018-04-10T02:31:51.798Z,21.48
2018-04-10T02:32:23.386Z,21.49
2018-04-10T02:32:54.998Z,21.49
2018-04-10T02:33:26.680Z,21.49
2018-04-10T02:33:58.311Z,21.46
2018-04-10T02:34:29.912Z,21.48
2018-04-10T02:35:01.513Z,21.49
2018-04-10T02:35:33.102Z,21.48
2018-04-10T02:36:04.771Z,21.48
2018-04-10T02:36:36.390Z,21.47
2018-04-10T02:37:08.046Z,21.48
2018-04-10T02:37:39.725Z,21.45
2018-04-10T02:38:11.334Z,21.45
2018-04-10T02:38:42.984Z,21.44
2018-04-10T02:39:14.622Z,21.46
2018-04-10T02:39:46.230Z,21.45
2018-04-10T02:40:17.866Z,21.44
2018-04-10T02:40:49.553Z,21.48
2018-04-10T02:41:21.193Z,21.51
2018-04-10T02:41:52.782Z,21.52
2018-04-10T02:42:24.459Z,21.51
2018-04-10T02:42:56.150Z,21.48
2018-04-10T02:43:27.734Z,21.46
2018-04-10T02:43:59.413Z,21.42
2018-04-10T02:44:31.038Z,21.37
2018-04-10T02:45:02.626Z,21.37
2018-04-10T02:45:34.263Z,21.34
2018-04-10T02:46:05.880Z,21.33
2018-04-10T02:46:37.489Z,21.31
2018-04-10T02:47:09.106Z,21.28
2018-04-10T02:47:40.862Z,21.28
2018-04-10T02:48:12.576Z,21.27
2018-04-10T02:48:44.182Z,21.27
2018-04-10T02:49:15.829Z,21.31
2018-04-10T02:49:47.415Z,21.35
2018-04-10T02:50:19.061Z,21.40
2018-04-10T02:50:50.666Z,21.44
2018-04-10T02:51:22.274Z,21.49
2018-04-10T02:51:53.893Z,21.54
2018-04-10T02:52:25.485Z,21.58
2018-04-10T02:52:57.150Z,21.60
2018-04-10T02:53:28.788Z,21.63
2018-04-10T02:54:00.382Z,21.66
2018-04-10T02:54:31.994Z,21.67
2018-04-10T02:55:03.662Z,21.65
2018-04-10T02:55:35.362Z,21.60
2018-04-10T02:56:06.978Z,21.55
2018-04-10T02:56:38.602Z,21.51
2018-04-10T02:57:10.218Z,21.48
2018-04-10T02:57:41.866Z,21.46
2018-04-10T02:58:13.515Z,21.51
2018-04-10T02:58:45.104Z,21.55
2018-04-10T02:59:16.715Z,21.59
2018-04-10T02:59:48.326Z,21.57
2018-04-10T03:00:19.931Z,21.54
2018-04-10T03:00:51.518Z,21.48
2018-04-10T03:01:23.193Z,21.46
2018-04-10T03:01:54.834Z,21.46
2018-04-10T03:02:26.423Z,21.45
2018-04-10T03:02:58.014Z,21.44
2018-04-10T03:03:29.591Z,21.44
2018-04-10T03:04:01.217Z,21.43
2018-04-10T03:04:32.939Z,21.42
2018-04-10T03:05:04.635Z,21.41
2018-04-10T03:05:36.258Z,21.41
2018-04-10T03:06:07.832Z,21.40
2018-04-10T03:06:39.436Z,21.39
2018-04-10T03:07:11.122Z,21.41
2018-04-10T03:07:42.710Z,21.43
2018-04-10T03:08:14.321Z,21.43
2018-04-10T03:08:45.997Z,21.42
2018-04-10T03:09:17.606Z,21.42
2018-04-10T03:09:49.240Z,21.43
2018-04-10T03:10:20.870Z,21.41
2018-04-10T03:10:52.458Z,21.42
2018-04-10T03:11:24.090Z,21.43
2018-04-10T03:11:55.729Z,21.41
2018-04-10T03:12:27.453Z,21.44
2018-04-10T03:12:59.043Z,21.44
2018-04-10T03:13:30.649Z,21.46
2018-04-10T03:14:02.397Z,21.45
2018-04-10T03:14:34.043Z,21.45
2018-04-10T03:15:05.654Z,21.48
2018-04-10T03:15:37.253Z,21.45
2018-04-10T03:16:08.902Z,21.46
2018-04-10T03:16:40.528Z,21.45
2018-04-10T03:17:12.128Z,21.47
2018-04-10T03:17:43.752Z,21.47
2018-04-10T03:18:15.353Z,21.48
2018-04-10T03:18:47.010Z,21.48
2018-04-10T03:19:18.662Z,21.49
2018-04-10T03:19:50.339Z,21.49
2018-04-10T03:20:21.973Z,21.49
2018-04-10T03:20:53.571Z,21.49
2018-04-10T03:21:25.168Z,21.49
2018-04-10T03:21:56.832Z,21.50
2018-04-10T03:22:28.462Z,21.52
2018-04-10T03:23:00.182Z,21.52
2018-04-10T03:23:31.892Z,21.48
2018-04-10T03:24:03.529Z,21.49
2018-04-10T03:24:35.245Z,21.48
2018-04-10T03:25:06.820Z,21.46
2018-04-10T03:25:38.491Z,21.46
2018-04-10T03:26:10.215Z,21.45
2018-04-10T03:26:41.792Z,21.42
2018-04-10T03:27:13.378Z,21.42
2018-04-10T03:27:44.989Z,21.42
2018-04-10T03:28:16.674Z,21.41
2018-04-10T03:28:48.303Z,21.39
2018-04-10T03:29:19.938Z,21.38
2018-04-10T03:29:51.639Z,21.36
2018-04-10T03:30:23.258Z,21.36
2018-04-10T03:30:54.832Z,21.36
2018-04-10T03:31:26.530Z,21.35
2018-04-10T03:31:58.119Z,21.34
2018-04-10T03:32:29.742Z,21.33
2018-04-10T03:33:01.349Z,21.30
2018-04-10T03:33:32.938Z,21.33
2018-04-10T03:34:04.606Z,21.31
2018-04-10T03:34:36.250Z,21.30
2018-04-10T03:35:07.899Z,21.29
2018-04-10T03:35:39.576Z,21.29
2018-04-10T03:36:11.214Z,21.27
2018-04-10T03:36:42.827Z,21.29
2018-04-10T03:37:14.426Z,21.25
2018-04-10T03:37:46.069Z,21.26
2018-04-10T03:38:17.671Z,21.23
2018-04-10T03:38:49.282Z,21.25
2018-04-10T03:39:20.944Z,21.26
2018-04-10T03:39:52.531Z,21.23
2018-04-10T03:40:24.145Z,21.26
2018-04-10T03:40:55.752Z,21.26
2018-04-10T03:41:27.362Z,21.25
2018-04-10T03:41:58.964Z,21.25
2018-04-10T03:42:30.661Z,21.26
2018-04-10T03:43:02.271Z,21.27
2018-04-10T03:43:33.858Z,21.27
2018-04-10T03:44:05.496Z,21.26
2018-04-10T03:44:37.126Z,21.27
2018-04-10T03:45:08.711Z,21.25
2018-04-10T03:45:40.470Z,21.27
2018-04-10T03:46:12.062Z,21.30
2018-04-10T03:46:43.665Z,21.29
2018-04-10T03:47:15.358Z,21.29
2018-04-10T03:47:47.064Z,21.27
2018-04-10T03:48:18.775Z,21.28
2018-04-10T03:48:50.421Z,21.27
2018-04-10T03:49:22.009Z,21.28
2018-04-10T03:49:53.584Z,21.29
2018-04-10T03:50:25.289Z,21.30
2018-04-10T03:50:56.990Z,21.30
2018-04-10T03:51:28.597Z,21.28
2018-04-10T03:52:00.342Z,21.29
2018-04-10T03:52:31.950Z,21.29
2018-04-10T03:53:03.557Z,21.30
2018-04-10T03:53:35.194Z,21.29
2018-04-10T03:54:06.804Z,21.27
2018-04-10T03:54:38.434Z,21.29
2018-04-10T03:55:10.069Z,21.29
2018-04-10T03:55:41.732Z,21.30
2018-04-10T03:56:13.422Z,21.28
2018-04-10T03:56:45.045Z,21.27
2018-04-10T03:57:16.742Z,21.25
2018-04-10T03:57:48.385Z,21.27
2018-04-10T03:58:19.996Z,21.25
2018-04-10T03:58:51.654Z,21.28
2018-04-10T03:59:23.330Z,21.27
2018-04-10T03:59:54.974Z,21.29
2018-04-10T04:00:26.683Z,21.30
2018-04-10T04:00:58.270Z,21.29
2018-04-10T04:01:30.837Z,21.28
2018-04-10T04:02:02.422Z,21.29
2018-04-10T04:02:34.010Z,21.30
2018-04-10T04:03:05.596Z,21.30
2018-04-10T04:03:37.206Z,21.28
2018-04-10T04:04:08.794Z,21.29
2018-04-10T04:04:40.378Z,21.27
2018-04-10T04:05:11.982Z,21.26
2018-04-10T04:05:43.591Z,21.23
2018-04-10T04:06:15.180Z,21.23
2018-04-10T04:06:46.824Z,21.22
2018-04-10T04:07:18.416Z,21.22
2018-04-10T04:07:50.033Z,21.21
2018-04-10T04:08:21.646Z,21.20
2018-04-10T04:08:53.221Z,21.19
2018-04-10T04:09:24.793Z,21.18
2018-04-10T04:09:56.368Z,21.19
2018-04-10T04:10:27.976Z,21.18
2018-04-10T04:10:59.581Z,21.15
2018-04-10T04:11:31.156Z,21.16
2018-04-10T04:12:02.812Z,21.16
2018-04-10T04:12:34.422Z,21.14
2018-04-10T04:13:06.034Z,21.14
2018-04-10T04:13:37.645Z,21.14
2018-04-10T04:14:09.251Z,21.14
2018-04-10T04:14:40.847Z,21.14
2018-04-10T04:15:12.434Z,21.11
2018-04-10T04:15:44.017Z,21.12
2018-04-10T04:16:15.626Z,21.11
2018-04-10T04:16:47.238Z,21.12
2018-04-10T04:17:18.886Z,21.11
2018-04-10T04:17:50.484Z,21.09
2018-04-10T04:18:22.071Z,21.10
2018-04-10T04:18:53.698Z,21.09
2018-04-10T04:19:25.264Z,21.09
2018-04-10T04:19:56.871Z,21.10
2018-04-10T04:20:28.482Z,21.11
2018-04-10T04:21:00.099Z,21.11
2018-04-10T04:21:31.687Z,21.11
2018-04-10T04:22:03.286Z,21.12
2018-04-10T04:22:34.946Z,21.14
2018-04-10T04:23:06.549Z,21.15
2018-04-10T04:23:38.129Z,21.15
2018-04-10T04:24:09.732Z,21.16
2018-04-10T04:24:41.316Z,21.16
2018-04-10T04:25:12.922Z,21.17
2018-04-10T04:25:44.510Z,21.17
2018-04-10T04:26:16.089Z,21.17
2018-04-10T04:26:47.668Z,21.18
2018-04-10T04:27:19.244Z,21.20
2018-04-10T04:27:50.853Z,21.21
2018-04-10T04:28:22.467Z,21.21
2018-04-10T04:28:54.067Z,21.22
2018-04-10T04:29:25.690Z,21.21
2018-04-10T04:29:57.282Z,21.23
2018-04-10T04:30:28.873Z,21.24
2018-04-10T04:31:00.452Z,21.23
2018-04-10T04:31:32.028Z,21.24
2018-04-10T04:32:03.646Z,21.25
2018-04-10T04:32:35.341Z,21.25
2018-04-10T04:33:06.937Z,21.26
2018-04-10T04:33:38.550Z,21.26
2018-04-10T04:34:10.143Z,21.27
2018-04-10T04:34:41.731Z,21.28
2018-04-10T04:35:13.318Z,21.29
2018-04-10T04:35:44.901Z,21.27
2018-04-10T04:36:16.510Z,21.29
2018-04-10T04:36:48.122Z,21.29
2018-04-10T04:37:19.717Z,21.30
2018-04-10T04:37:51.385Z,21.31
2018-04-10T04:38:22.994Z,21.32
2018-04-10T04:38:54.606Z,21.33
2018-04-10T04:39:26.194Z,21.34
2018-04-10T04:39:57.772Z,21.34
2018-04-10T04:40:29.344Z,21.35
2018-04-10T04:41:00.951Z,21.36
2018-04-10T04:41:32.558Z,21.36
2018-04-10T04:42:04.156Z,21.37
2018-04-10T04:42:35.762Z,21.36
2018-04-10T04:43:07.442Z,21.37
2018-04-10T04:43:39.056Z,21.37
2018-04-10T04:44:10.674Z,21.40
2018-04-10T04:44:42.286Z,21.40
2018-04-10T04:45:13.884Z,21.37
2018-04-10T04:45:45.486Z,21.40
2018-04-10T04:46:17.102Z,21.39
2018-04-10T04:46:48.714Z,21.40
2018-04-10T04:47:20.327Z,21.41
2018-04-10T04:47:51.941Z,21.40
2018-04-10T04:48:23.609Z,21.40
2018-04-10T04:48:55.231Z,21.39
2018-04-10T04:49:26.847Z,21.38
2018-04-10T04:49:58.448Z,21.38
2018-04-10T04:50:30.035Z,21.37
2018-04-10T04:51:01.618Z,21.38
2018-04-10T04:51:33.226Z,21.39
2018-04-10T04:52:04.815Z,21.38
2018-04-10T04:52:36.404Z,21.38
2018-04-10T04:53:08.020Z,21.38
2018-04-10T04:53:39.672Z,21.37
2018-04-10T04:54:11.245Z,21.35
2018-04-10T04:54:42.830Z,21.34
2018-04-10T04:55:14.420Z,21.35
2018-04-10T04:55:46.030Z,21.33
2018-04-10T04:56:17.609Z,21.33
2018-04-10T04:56:49.213Z,21.33
2018-04-10T04:57:20.801Z,21.31
2018-04-10T04:57:52.409Z,21.30
2018-04-10T04:58:23.984Z,21.29
2018-04-10T04:58:55.634Z,21.29
2018-04-10T04:59:27.226Z,21.28
2018-04-10T04:59:58.834Z,21.29
2018-04-10T05:00:30.423Z,21.29
2018-04-10T05:01:02.091Z,21.31
2018-04-10T05:01:33.684Z,21.31
2018-04-10T05:02:05.270Z,21.32
2018-04-10T05:02:36.873Z,21.32
2018-04-10T05:03:08.486Z,21.33
2018-04-10T05:03:40.074Z,21.34
2018-04-10T05:04:11.742Z,21.33
2018-04-10T05:04:43.334Z,21.33
2018-04-10T05:05:14.918Z,21.31
2018-04-10T05:05:46.511Z,21.34
2018-04-10T05:06:18.102Z,21.34
2018-04-10T05:06:49.685Z,21.33
2018-04-10T05:07:21.268Z,21.32
2018-04-10T05:07:52.885Z,21.34
2018-04-10T05:08:24.503Z,21.33
2018-04-10T05:08:56.320Z,21.33
2018-04-10T05:09:27.918Z,21.34
2018-04-10T05:09:59.582Z,21.35
2018-04-10T05:10:31.169Z,21.35
2018-04-10T05:11:02.778Z,21.34
2018-04-10T05:11:34.362Z,21.35
2018-04-10T05:12:05.965Z,21.34
2018-04-10T05:12:37.553Z,21.32
2018-04-10T05:13:09.137Z,21.35
2018-04-10T05:13:40.722Z,21.35
2018-04-10T05:14:12.357Z,21.35
2018-04-10T05:14:44.016Z,21.35
2018-04-10T05:15:15.610Z,21.36
2018-04-10T05:15:47.194Z,21.36
2018-04-10T05:16:18.772Z,21.34
2018-04-10T05:16:50.344Z,21.35
2018-04-10T05:17:21.934Z,21.34
2018-04-10T05:17:53.524Z,21.35
2018-04-10T05:18:25.115Z,21.36
2018-04-10T05:18:56.688Z,21.37
2018-04-10T05:19:28.283Z,21.36
2018-04-10T05:20:00.100Z,21.34
2018-04-10T05:20:31.846Z,21.36
2018-04-10T05:21:03.474Z,21.34
2018-04-10T05:21:35.058Z,21.35
2018-04-10T05:22:06.666Z,21.34
2018-04-10T05:22:38.258Z,21.34
2018-04-10T05:23:09.856Z,21.34
2018-04-10T05:23:41.466Z,21.35
2018-04-10T05:24:13.079Z,21.35
2018-04-10T05:24:44.675Z,21.35
2018-04-10T05:25:16.334Z,21.35
2018-04-10T05:25:47.926Z,21.36
2018-04-10T05:26:19.518Z,21.35
2018-04-10T05:26:51.125Z,21.34
2018-04-10T05:27:22.713Z,21.33
2018-04-10T05:27:54.321Z,21.34
2018-04-10T05:28:36.109Z,21.35
2018-04-10T05:29:07.722Z,21.34
2018-04-10T05:29:39.320Z,21.35
2018-04-10T05:30:10.910Z,21.34
2018-04-10T05:30:42.564Z,21.35
2018-04-10T05:31:14.174Z,21.36
2018-04-10T05:31:45.797Z,21.35
2018-04-10T05:32:17.537Z,21.35
2018-04-10T05:32:49.146Z,21.36
2018-04-10T05:33:20.744Z,21.32
2018-04-10T05:33:52.362Z,21.31
2018-04-10T05:34:23.947Z,21.32
2018-04-10T05:34:55.554Z,21.34
2018-04-10T05:35:27.142Z,21.35
2018-04-10T05:35:58.969Z,21.34
2018-04-10T05:36:30.585Z,21.33
2018-04-10T05:37:02.164Z,21.33
2018-04-10T05:37:33.765Z,21.33
2018-04-10T05:38:05.364Z,21.33
2018-04-10T05:38:36.964Z,21.33
2018-04-10T05:39:08.544Z,21.34
2018-04-10T05:39:40.130Z,21.31
2018-04-10T05:40:11.704Z,21.30
2018-04-10T05:40:43.307Z,21.31
2018-04-10T05:41:15.000Z,21.31
2018-04-10T05:41:46.596Z,21.29
2018-04-10T05:42:18.172Z,21.31
2018-04-10T05:42:49.781Z,21.30
2018-04-10T05:43:21.394Z,21.30
2018-04-10T05:43:53.009Z,21.33
2018-04-10T05:44:24.600Z,21.32
2018-04-10T05:44:56.244Z,21.34
2018-04-10T05:45:27.831Z,21.33
2018-04-10T05:45:59.438Z,21.14
2018-04-10T05:46:31.050Z,21.33
2018-04-10T05:47:02.678Z,21.32
2018-04-10T05:47:34.298Z,21.34
2018-04-10T05:48:05.896Z,21.32
2018-04-10T05:48:37.501Z,21.32
2018-04-10T05:49:09.115Z,21.33
2018-04-10T05:49:41.186Z,21.30
2018-04-10T05:50:12.784Z,21.32
2018-04-10T05:50:44.361Z,21.30
2018-04-10T05:51:15.979Z,21.30
2018-04-10T05:51:47.633Z,21.31
2018-04-10T05:52:19.250Z,21.29
2018-04-10T05:52:50.838Z,21.29
2018-04-10T05:53:22.450Z,21.28
2018-04-10T05:53:54.039Z,21.27
2018-04-10T05:54:25.626Z,21.26
2018-04-10T05:54:57.239Z,21.27
2018-04-10T05:55:28.834Z,21.27
2018-04-10T05:56:00.429Z,21.26
2018-04-10T05:56:32.036Z,21.26
2018-04-10T05:57:03.726Z,21.24
2018-04-10T05:57:35.342Z,21.24
2018-04-10T05:58:06.926Z,21.21
2018-04-10T05:58:38.580Z,21.20
2018-04-10T05:59:10.182Z,21.19
2018-04-10T05:59:41.794Z,21.19
2018-04-10T06:00:13.384Z,21.18
2018-04-10T06:00:44.980Z,21.17
2018-04-10T06:01:16.590Z,21.16
2018-04-10T06:01:48.178Z,21.17
2018-04-10T06:02:19.832Z,21.16
2018-04-10T06:02:51.425Z,21.14
2018-04-10T06:03:23.020Z,21.14
2018-04-10T06:03:54.606Z,21.14
2018-04-10T06:04:26.190Z,21.13
2018-04-10T06:04:57.798Z,21.13
2018-04-10T06:05:29.390Z,21.11
2018-04-10T06:06:00.974Z,21.13
2018-04-10T06:06:32.562Z,21.14
2018-04-10T06:07:04.137Z,21.12
2018-04-10T06:07:35.782Z,21.12
2018-04-10T06:08:07.387Z,21.12
2018-04-10T06:08:38.964Z,21.11
2018-04-10T06:09:10.541Z,21.10
2018-04-10T06:09:42.123Z,21.09
2018-04-10T06:10:13.706Z,21.08
2018-04-10T06:10:45.300Z,21.06
2018-04-10T06:11:16.886Z,21.06
2018-04-10T06:11:48.474Z,21.06
2018-04-10T06:12:20.064Z,21.06
2018-04-10T06:12:51.929Z,21.06
2018-04-10T06:13:23.508Z,21.05
2018-04-10T06:13:55.122Z,21.04
2018-04-10T06:14:26.734Z,21.05
2018-04-10T06:14:58.331Z,21.04
2018-04-10T06:15:29.944Z,21.03
2018-04-10T06:16:01.522Z,21.02
2018-04-10T06:16:33.096Z,21.00
2018-04-10T06:17:04.678Z,21.01
2018-04-10T06:17:36.290Z,21.01
2018-04-10T06:18:07.929Z,21.02
2018-04-10T06:18:39.533Z,21.00
2018-04-10T06:19:11.108Z,21.00
2018-04-10T06:19:42.714Z,21.01
2018-04-10T06:20:14.354Z,21.02
2018-04-10T06:20:45.963Z,21.02
2018-04-10T06:21:17.570Z,21.05
2018-04-10T06:21:49.182Z,21.06
2018-04-10T06:22:20.763Z,21.07
2018-04-10T06:22:52.347Z,21.08
2018-04-10T06:23:23.930Z,21.10
2018-04-10T06:23:55.538Z,21.10
2018-04-10T06:24:27.126Z,21.12
2018-04-10T06:24:58.713Z,21.13
2018-04-10T06:25:30.323Z,21.15
2018-04-10T06:26:01.916Z,21.17
2018-04-10T06:26:33.498Z,21.19
2018-04-10T06:27:05.126Z,21.19
2018-04-10T06:27:36.738Z,21.21
2018-04-10T06:28:08.340Z,21.21
2018-04-10T06:28:39.986Z,21.22
2018-04-10T06:29:11.593Z,21.25
2018-04-10T06:29:43.205Z,21.28
2018-04-10T06:30:14.819Z,21.31
2018-04-10T06:30:46.430Z,21.32
2018-04-10T06:31:18.022Z,21.32
2018-04-10T06:31:49.631Z,21.33
2018-04-10T06:32:21.258Z,21.35
2018-04-10T06:32:52.856Z,21.35
2018-04-10T06:33:24.451Z,21.36
2018-04-10T06:33:56.085Z,21.33
2018-04-10T06:34:27.698Z,21.33
2018-04-10T06:34:59.301Z,21.33
2018-04-10T06:35:30.881Z,21.34
2018-04-10T06:36:02.472Z,21.33
2018-04-10T06:36:34.085Z,21.33
2018-04-10T06:37:05.693Z,21.33
2018-04-10T06:37:37.302Z,21.34
2018-04-10T06:38:08.890Z,21.34
2018-04-10T06:38:40.461Z,21.34
2018-04-10T06:39:12.107Z,21.32
2018-04-10T06:39:43.715Z,21.30
2018-04-10T06:40:15.326Z,21.30
2018-04-10T06:40:46.925Z,21.30
2018-04-10T06:41:18.514Z,21.30
2018-04-10T06:41:50.116Z,21.30
2018-04-10T06:42:21.720Z,21.30
2018-04-10T06:42:53.310Z,21.26
2018-04-10T06:43:24.881Z,21.28
2018-04-10T06:43:56.486Z,21.27
2018-04-10T06:44:28.235Z,21.25
2018-04-10T06:44:59.819Z,21.25
2018-04-10T06:45:31.417Z,21.23
2018-04-10T06:46:03.026Z,21.25
2018-04-10T06:46:34.630Z,21.24
2018-04-10T06:47:06.246Z,21.22
2018-04-10T06:47:37.842Z,21.22
2018-04-10T06:48:09.450Z,21.22
2018-04-10T06:48:41.028Z,21.22